sensor_id;sensor_type;location;lat;lon;timestamp;temperature;humidity
18321;DHT22;54904;54.350;18.664;2023-07-22T00:01:42;19.50;99.90
18321;DHT22;54904;54.350;18.664;2023-07-22T00:04:09;19.50;99.90
18321;DHT22;54904;54.350;18.664;2023-07-22T00:06:36;19.40;99.90
18321;DHT22;54904;54.350;18.664;2023-07-22T00:09:03;19.40;99.90
18321;DHT22;54904;54.350;18.664;2023-07-22T00:11:31;19.40;99.90
18321;DHT22;54904;54.350;18.664;2023-07-22T00:13:58;19.30;99.90
18321;DHT22;54904;54.350;18.664;2023-07-22T00:16:27;19.30;99.90
18321;DHT22;54904;54.350;18.664;2023-07-22T00:18:55;19.30;99.90
18321;DHT22;54904;54.350;18.664;2023-07-22T00:21:22;19.30;99.90
18321;DHT22;54904;54.350;18.664;2023-07-22T00:23:49;19.30;99.90
18321;DHT22;54904;54.350;18.664;2023-07-22T00:26:16;19.30;99.90
18321;DHT22;54904;54.350;18.664;2023-07-22T00:28:43;19.30;99.90
18321;DHT22;54904;54.350;18.664;2023-07-22T00:31:10;19.30;99.90
18321;DHT22;54904;54.350;18.664;2023-07-22T00:33:38;19.30;99.90
18321;DHT22;54904;54.350;18.664;2023-07-22T00:36:05;19.20;99.90
18321;DHT22;54904;54.350;18.664;2023-07-22T00:38:32;19.10;99.90
18321;DHT22;54904;54.350;18.664;2023-07-22T00:41:00;19.20;99.90
18321;DHT22;54904;54.350;18.664;2023-07-22T00:43:30;19.00;99.90
18321;DHT22;54904;54.350;18.664;2023-07-22T00:45:57;19.00;99.90
18321;DHT22;54904;54.350;18.664;2023-07-22T00:48:25;19.00;99.90
18321;DHT22;54904;54.350;18.664;2023-07-22T00:50:55;19.00;99.90
18321;DHT22;54904;54.350;18.664;2023-07-22T00:53:22;19.00;99.90
18321;DHT22;54904;54.350;18.664;2023-07-22T00:55:49;19.00;99.90
18321;DHT22;54904;54.350;18.664;2023-07-22T00:58:16;19.00;99.90
18321;DHT22;54904;54.350;18.664;2023-07-22T01:00:43;19.00;99.90
18321;DHT22;54904;54.350;18.664;2023-07-22T01:03:10;18.90;99.90
18321;DHT22;54904;54.350;18.664;2023-07-22T01:05:39;19.00;99.90
18321;DHT22;54904;54.350;18.664;2023-07-22T01:08:08;18.90;99.90
18321;DHT22;54904;54.350;18.664;2023-07-22T01:10:35;19.00;99.90
18321;DHT22;54904;54.350;18.664;2023-07-22T01:13:02;19.00;99.90
18321;DHT22;54904;54.350;18.664;2023-07-22T01:15:30;19.00;99.90
18321;DHT22;54904;54.350;18.664;2023-07-22T01:17:58;18.90;99.90
18321;DHT22;54904;54.350;18.664;2023-07-22T01:20:27;18.90;99.90
18321;DHT22;54904;54.350;18.664;2023-07-22T01:22:56;18.90;99.90
18321;DHT22;54904;54.350;18.664;2023-07-22T01:25:23;18.90;99.90
18321;DHT22;54904;54.350;18.664;2023-07-22T01:27:52;18.90;99.90
18321;DHT22;54904;54.350;18.664;2023-07-22T01:30:19;18.90;99.90
18321;DHT22;54904;54.350;18.664;2023-07-22T01:32:46;18.90;99.90
18321;DHT22;54904;54.350;18.664;2023-07-22T01:35:13;18.90;99.90
18321;DHT22;54904;54.350;18.664;2023-07-22T01:37:40;18.90;99.90
18321;DHT22;54904;54.350;18.664;2023-07-22T01:40:11;18.80;99.90
18321;DHT22;54904;54.350;18.664;2023-07-22T01:42:38;18.80;99.90
18321;DHT22;54904;54.350;18.664;2023-07-22T01:45:06;18.80;99.90
18321;DHT22;54904;54.350;18.664;2023-07-22T01:47:34;18.70;99.90
18321;DHT22;54904;54.350;18.664;2023-07-22T01:50:01;18.70;99.90
18321;DHT22;54904;54.350;18.664;2023-07-22T01:52:28;18.70;99.90
18321;DHT22;54904;54.350;18.664;2023-07-22T01:54:56;18.70;99.90
18321;DHT22;54904;54.350;18.664;2023-07-22T01:57:24;18.60;99.90
18321;DHT22;54904;54.350;18.664;2023-07-22T01:59:51;18.50;99.90
18321;DHT22;54904;54.350;18.664;2023-07-22T02:02:19;18.60;99.90
18321;DHT22;54904;54.350;18.664;2023-07-22T02:04:46;18.60;99.90
18321;DHT22;54904;54.350;18.664;2023-07-22T02:07:13;18.60;99.90
18321;DHT22;54904;54.350;18.664;2023-07-22T02:09:40;18.50;99.90
18321;DHT22;54904;54.350;18.664;2023-07-22T02:12:08;18.50;99.90
18321;DHT22;54904;54.350;18.664;2023-07-22T02:14:37;18.50;99.90
18321;DHT22;54904;54.350;18.664;2023-07-22T02:17:05;18.50;99.90
18321;DHT22;54904;54.350;18.664;2023-07-22T02:19:35;18.50;99.90
18321;DHT22;54904;54.350;18.664;2023-07-22T02:22:03;18.50;99.90
18321;DHT22;54904;54.350;18.664;2023-07-22T02:24:30;18.50;99.90
18321;DHT22;54904;54.350;18.664;2023-07-22T02:26:58;18.50;99.90
18321;DHT22;54904;54.350;18.664;2023-07-22T02:29:25;18.40;99.90
18321;DHT22;54904;54.350;18.664;2023-07-22T02:31:54;18.40;99.90
18321;DHT22;54904;54.350;18.664;2023-07-22T02:34:21;18.40;99.90
18321;DHT22;54904;54.350;18.664;2023-07-22T02:36:48;18.30;99.90
18321;DHT22;54904;54.350;18.664;2023-07-22T02:39:15;18.40;99.90
18321;DHT22;54904;54.350;18.664;2023-07-22T02:41:42;18.40;99.90
18321;DHT22;54904;54.350;18.664;2023-07-22T02:44:09;18.40;99.90
18321;DHT22;54904;54.350;18.664;2023-07-22T02:46:36;18.40;99.90
18321;DHT22;54904;54.350;18.664;2023-07-22T02:49:04;18.40;99.90
18321;DHT22;54904;54.350;18.664;2023-07-22T02:51:32;18.30;99.90
18321;DHT22;54904;54.350;18.664;2023-07-22T02:53:59;18.30;99.90
18321;DHT22;54904;54.350;18.664;2023-07-22T02:56:26;18.30;99.90
18321;DHT22;54904;54.350;18.664;2023-07-22T02:58:53;18.30;99.90
18321;DHT22;54904;54.350;18.664;2023-07-22T03:01:20;18.30;99.90
18321;DHT22;54904;54.350;18.664;2023-07-22T03:03:47;18.20;99.90
18321;DHT22;54904;54.350;18.664;2023-07-22T03:06:16;18.20;99.90
18321;DHT22;54904;54.350;18.664;2023-07-22T03:08:43;18.30;99.90
18321;DHT22;54904;54.350;18.664;2023-07-22T03:11:10;18.30;99.90
18321;DHT22;54904;54.350;18.664;2023-07-22T03:13:37;18.20;99.90
18321;DHT22;54904;54.350;18.664;2023-07-22T03:16:04;18.20;99.90
18321;DHT22;54904;54.350;18.664;2023-07-22T03:18:31;18.20;99.90
18321;DHT22;54904;54.350;18.664;2023-07-22T03:20:58;18.20;99.90
18321;DHT22;54904;54.350;18.664;2023-07-22T03:23:26;18.20;99.90
18321;DHT22;54904;54.350;18.664;2023-07-22T03:25:54;18.20;99.90
18321;DHT22;54904;54.350;18.664;2023-07-22T03:28:21;18.20;99.90
18321;DHT22;54904;54.350;18.664;2023-07-22T03:30:48;18.20;99.90
18321;DHT22;54904;54.350;18.664;2023-07-22T03:33:15;18.20;99.90
18321;DHT22;54904;54.350;18.664;2023-07-22T03:35:42;18.20;99.90
18321;DHT22;54904;54.350;18.664;2023-07-22T03:38:09;18.20;99.90
18321;DHT22;54904;54.350;18.664;2023-07-22T03:40:37;18.20;99.90
18321;DHT22;54904;54.350;18.664;2023-07-22T03:43:05;18.20;99.90
18321;DHT22;54904;54.350;18.664;2023-07-22T03:45:32;18.20;99.90
18321;DHT22;54904;54.350;18.664;2023-07-22T03:48:00;18.10;99.90
18321;DHT22;54904;54.350;18.664;2023-07-22T03:50:27;18.10;99.90
18321;DHT22;54904;54.350;18.664;2023-07-22T03:52:54;18.10;99.90
18321;DHT22;54904;54.350;18.664;2023-07-22T03:55:22;18.10;99.90
18321;DHT22;54904;54.350;18.664;2023-07-22T03:57:50;18.10;99.90
18321;DHT22;54904;54.350;18.664;2023-07-22T04:00:17;18.20;99.90
18321;DHT22;54904;54.350;18.664;2023-07-22T04:02:44;18.20;99.90
18321;DHT22;54904;54.350;18.664;2023-07-22T04:05:12;18.10;99.90
18321;DHT22;54904;54.350;18.664;2023-07-22T04:07:39;18.20;99.90
18321;DHT22;54904;54.350;18.664;2023-07-22T04:10:07;18.20;99.90
18321;DHT22;54904;54.350;18.664;2023-07-22T04:12:34;18.20;99.90
18321;DHT22;54904;54.350;18.664;2023-07-22T04:15:03;18.20;99.90
18321;DHT22;54904;54.350;18.664;2023-07-22T04:17:30;18.20;99.90
18321;DHT22;54904;54.350;18.664;2023-07-22T04:19:58;18.20;99.90
18321;DHT22;54904;54.350;18.664;2023-07-22T04:22:25;18.20;99.90
18321;DHT22;54904;54.350;18.664;2023-07-22T04:24:52;18.20;99.90
18321;DHT22;54904;54.350;18.664;2023-07-22T04:27:20;18.20;99.90
18321;DHT22;54904;54.350;18.664;2023-07-22T04:29:47;18.30;99.90
18321;DHT22;54904;54.350;18.664;2023-07-22T04:32:15;18.30;99.90
18321;DHT22;54904;54.350;18.664;2023-07-22T04:34:43;18.30;99.90
18321;DHT22;54904;54.350;18.664;2023-07-22T04:37:10;18.40;99.90
18321;DHT22;54904;54.350;18.664;2023-07-22T04:39:38;18.40;99.90
18321;DHT22;54904;54.350;18.664;2023-07-22T04:42:06;18.40;99.90
18321;DHT22;54904;54.350;18.664;2023-07-22T04:44:33;18.50;99.90
18321;DHT22;54904;54.350;18.664;2023-07-22T04:47:00;18.50;99.90
18321;DHT22;54904;54.350;18.664;2023-07-22T04:49:28;18.50;99.90
18321;DHT22;54904;54.350;18.664;2023-07-22T04:51:55;18.50;99.90
18321;DHT22;54904;54.350;18.664;2023-07-22T04:54:22;18.50;99.90
18321;DHT22;54904;54.350;18.664;2023-07-22T04:56:49;18.50;99.90
18321;DHT22;54904;54.350;18.664;2023-07-22T04:59:16;18.50;99.90
18321;DHT22;54904;54.350;18.664;2023-07-22T05:01:44;18.60;99.90
18321;DHT22;54904;54.350;18.664;2023-07-22T05:04:11;18.60;99.90
18321;DHT22;54904;54.350;18.664;2023-07-22T05:06:40;18.60;99.90
18321;DHT22;54904;54.350;18.664;2023-07-22T05:09:07;18.70;99.90
18321;DHT22;54904;54.350;18.664;2023-07-22T05:11:34;18.70;99.90
18321;DHT22;54904;54.350;18.664;2023-07-22T05:14:01;18.70;99.90
18321;DHT22;54904;54.350;18.664;2023-07-22T05:16:28;18.70;99.90
18321;DHT22;54904;54.350;18.664;2023-07-22T05:18:56;18.70;99.90
18321;DHT22;54904;54.350;18.664;2023-07-22T05:21:23;18.70;99.90
18321;DHT22;54904;54.350;18.664;2023-07-22T05:23:51;18.70;99.90
18321;DHT22;54904;54.350;18.664;2023-07-22T05:26:18;18.70;99.90
18321;DHT22;54904;54.350;18.664;2023-07-22T05:28:45;18.70;99.90
18321;DHT22;54904;54.350;18.664;2023-07-22T05:31:12;18.80;99.90
18321;DHT22;54904;54.350;18.664;2023-07-22T05:33:39;18.80;99.90
18321;DHT22;54904;54.350;18.664;2023-07-22T05:36:06;18.80;99.90
18321;DHT22;54904;54.350;18.664;2023-07-22T05:38:33;18.80;99.90
18321;DHT22;54904;54.350;18.664;2023-07-22T05:41:02;18.90;99.90
18321;DHT22;54904;54.350;18.664;2023-07-22T05:43:29;18.90;99.90
18321;DHT22;54904;54.350;18.664;2023-07-22T05:45:56;18.90;99.90
18321;DHT22;54904;54.350;18.664;2023-07-22T05:48:23;18.90;99.90
18321;DHT22;54904;54.350;18.664;2023-07-22T05:50:50;19.00;99.90
18321;DHT22;54904;54.350;18.664;2023-07-22T05:53:17;19.00;99.90
18321;DHT22;54904;54.350;18.664;2023-07-22T05:55:44;19.00;99.90
18321;DHT22;54904;54.350;18.664;2023-07-22T05:58:17;19.00;99.90
18321;DHT22;54904;54.350;18.664;2023-07-22T06:00:44;19.00;99.90
18321;DHT22;54904;54.350;18.664;2023-07-22T06:03:12;19.00;99.90
18321;DHT22;54904;54.350;18.664;2023-07-22T06:05:39;19.00;99.90
18321;DHT22;54904;54.350;18.664;2023-07-22T06:08:06;19.00;99.90
18321;DHT22;54904;54.350;18.664;2023-07-22T06:10:33;19.10;99.90
18321;DHT22;54904;54.350;18.664;2023-07-22T06:13:00;19.10;99.90
18321;DHT22;54904;54.350;18.664;2023-07-22T06:15:29;19.10;99.90
18321;DHT22;54904;54.350;18.664;2023-07-22T06:17:56;19.10;99.90
18321;DHT22;54904;54.350;18.664;2023-07-22T06:20:23;19.10;99.90
18321;DHT22;54904;54.350;18.664;2023-07-22T06:22:50;19.10;99.90
18321;DHT22;54904;54.350;18.664;2023-07-22T06:25:17;19.10;99.90
18321;DHT22;54904;54.350;18.664;2023-07-22T06:27:44;19.20;99.90
18321;DHT22;54904;54.350;18.664;2023-07-22T06:30:11;19.20;99.90
18321;DHT22;54904;54.350;18.664;2023-07-22T06:32:40;19.20;99.90
18321;DHT22;54904;54.350;18.664;2023-07-22T06:35:07;19.30;99.90
18321;DHT22;54904;54.350;18.664;2023-07-22T06:37:35;19.30;99.90
18321;DHT22;54904;54.350;18.664;2023-07-22T06:40:02;19.20;99.90
18321;DHT22;54904;54.350;18.664;2023-07-22T06:42:29;19.30;99.90
18321;DHT22;54904;54.350;18.664;2023-07-22T06:44:56;19.30;99.90
18321;DHT22;54904;54.350;18.664;2023-07-22T06:47:23;19.20;99.90
18321;DHT22;54904;54.350;18.664;2023-07-22T06:49:52;19.30;99.90
18321;DHT22;54904;54.350;18.664;2023-07-22T06:52:19;19.30;99.90
18321;DHT22;54904;54.350;18.664;2023-07-22T06:54:46;19.30;99.90
18321;DHT22;54904;54.350;18.664;2023-07-22T06:57:13;19.20;99.90
18321;DHT22;54904;54.350;18.664;2023-07-22T06:59:40;19.30;99.90
18321;DHT22;54904;54.350;18.664;2023-07-22T07:02:07;19.30;99.90
18321;DHT22;54904;54.350;18.664;2023-07-22T07:04:35;19.40;99.90
18321;DHT22;54904;54.350;18.664;2023-07-22T07:07:03;19.40;99.90
18321;DHT22;54904;54.350;18.664;2023-07-22T07:09:30;19.40;99.90
18321;DHT22;54904;54.350;18.664;2023-07-22T07:11:57;19.40;99.90
18321;DHT22;54904;54.350;18.664;2023-07-22T07:14:24;19.40;99.90
18321;DHT22;54904;54.350;18.664;2023-07-22T07:16:51;19.50;99.90
18321;DHT22;54904;54.350;18.664;2023-07-22T07:19:18;19.50;99.90
18321;DHT22;54904;54.350;18.664;2023-07-22T07:21:45;19.50;99.90
18321;DHT22;54904;54.350;18.664;2023-07-22T07:24:14;19.60;99.90
18321;DHT22;54904;54.350;18.664;2023-07-22T07:26:41;19.60;99.90
18321;DHT22;54904;54.350;18.664;2023-07-22T07:29:08;19.60;99.90
18321;DHT22;54904;54.350;18.664;2023-07-22T07:31:36;19.60;99.90
18321;DHT22;54904;54.350;18.664;2023-07-22T07:34:03;19.70;99.90
18321;DHT22;54904;54.350;18.664;2023-07-22T07:36:31;19.70;99.90
18321;DHT22;54904;54.350;18.664;2023-07-22T07:38:58;19.80;99.90
18321;DHT22;54904;54.350;18.664;2023-07-22T07:41:28;19.90;99.90
18321;DHT22;54904;54.350;18.664;2023-07-22T07:43:55;20.00;99.90
18321;DHT22;54904;54.350;18.664;2023-07-22T07:46:24;20.10;99.90
18321;DHT22;54904;54.350;18.664;2023-07-22T07:48:52;20.20;99.90
18321;DHT22;54904;54.350;18.664;2023-07-22T07:51:21;20.40;99.90
18321;DHT22;54904;54.350;18.664;2023-07-22T07:53:49;20.50;99.90
18321;DHT22;54904;54.350;18.664;2023-07-22T07:56:18;20.50;99.90
18321;DHT22;54904;54.350;18.664;2023-07-22T07:58:48;20.60;99.90
18321;DHT22;54904;54.350;18.664;2023-07-22T08:01:16;20.60;99.90
18321;DHT22;54904;54.350;18.664;2023-07-22T08:03:43;20.50;99.90
18321;DHT22;54904;54.350;18.664;2023-07-22T08:06:11;20.50;99.90
18321;DHT22;54904;54.350;18.664;2023-07-22T08:08:39;20.50;99.90
18321;DHT22;54904;54.350;18.664;2023-07-22T08:11:08;20.50;99.90
18321;DHT22;54904;54.350;18.664;2023-07-22T08:13:35;20.50;99.90
18321;DHT22;54904;54.350;18.664;2023-07-22T08:16:06;20.60;99.90
18321;DHT22;54904;54.350;18.664;2023-07-22T08:18:33;20.60;99.90
18321;DHT22;54904;54.350;18.664;2023-07-22T08:21:02;20.60;99.90
18321;DHT22;54904;54.350;18.664;2023-07-22T08:23:29;20.60;99.90
18321;DHT22;54904;54.350;18.664;2023-07-22T08:25:56;20.60;99.90
18321;DHT22;54904;54.350;18.664;2023-07-22T08:28:23;20.60;99.90
18321;DHT22;54904;54.350;18.664;2023-07-22T08:30:54;20.60;99.90
18321;DHT22;54904;54.350;18.664;2023-07-22T08:33:24;20.70;99.90
18321;DHT22;54904;54.350;18.664;2023-07-22T08:35:51;20.70;99.90
18321;DHT22;54904;54.350;18.664;2023-07-22T08:38:19;20.80;99.90
18321;DHT22;54904;54.350;18.664;2023-07-22T08:40:48;20.80;99.90
18321;DHT22;54904;54.350;18.664;2023-07-22T08:43:20;20.90;99.90
18321;DHT22;54904;54.350;18.664;2023-07-22T08:45:47;21.00;99.90
18321;DHT22;54904;54.350;18.664;2023-07-22T08:48:16;21.10;99.90
18321;DHT22;54904;54.350;18.664;2023-07-22T08:50:49;21.10;99.90
18321;DHT22;54904;54.350;18.664;2023-07-22T08:53:17;21.10;99.90
18321;DHT22;54904;54.350;18.664;2023-07-22T08:55:46;21.10;99.90
18321;DHT22;54904;54.350;18.664;2023-07-22T08:58:13;21.10;99.90
18321;DHT22;54904;54.350;18.664;2023-07-22T09:00:41;21.00;99.90
18321;DHT22;54904;54.350;18.664;2023-07-22T09:03:08;21.00;99.90
18321;DHT22;54904;54.350;18.664;2023-07-22T09:05:36;21.00;99.90
18321;DHT22;54904;54.350;18.664;2023-07-22T09:08:07;20.90;99.90
18321;DHT22;54904;54.350;18.664;2023-07-22T09:10:34;21.00;99.90
18321;DHT22;54904;54.350;18.664;2023-07-22T09:13:02;21.00;99.90
18321;DHT22;54904;54.350;18.664;2023-07-22T09:15:34;21.00;99.90
18321;DHT22;54904;54.350;18.664;2023-07-22T09:18:01;21.10;99.90
18321;DHT22;54904;54.350;18.664;2023-07-22T09:20:28;21.20;99.90
18321;DHT22;54904;54.350;18.664;2023-07-22T09:22:56;21.30;99.90
18321;DHT22;54904;54.350;18.664;2023-07-22T09:25:26;21.40;99.90
18321;DHT22;54904;54.350;18.664;2023-07-22T09:27:59;21.50;99.90
18321;DHT22;54904;54.350;18.664;2023-07-22T09:30:28;21.50;99.90
18321;DHT22;54904;54.350;18.664;2023-07-22T09:32:57;21.40;99.90
18321;DHT22;54904;54.350;18.664;2023-07-22T09:35:26;21.50;99.70
18321;DHT22;54904;54.350;18.664;2023-07-22T09:37:53;21.50;99.60
18321;DHT22;54904;54.350;18.664;2023-07-22T09:40:22;21.50;99.40
18321;DHT22;54904;54.350;18.664;2023-07-22T09:42:52;21.60;99.40
18321;DHT22;54904;54.350;18.664;2023-07-22T09:45:21;21.70;99.20
18321;DHT22;54904;54.350;18.664;2023-07-22T09:47:50;21.80;99.20
18321;DHT22;54904;54.350;18.664;2023-07-22T09:50:18;21.90;99.20
18321;DHT22;54904;54.350;18.664;2023-07-22T09:52:46;22.00;99.00
18321;DHT22;54904;54.350;18.664;2023-07-22T09:55:16;22.00;98.90
18321;DHT22;54904;54.350;18.664;2023-07-22T09:57:45;22.10;98.90
18321;DHT22;54904;54.350;18.664;2023-07-22T10:00:15;22.30;98.90
18321;DHT22;54904;54.350;18.664;2023-07-22T10:02:43;22.40;98.70
18321;DHT22;54904;54.350;18.664;2023-07-22T10:05:13;22.50;98.50
18321;DHT22;54904;54.350;18.664;2023-07-22T10:07:44;22.60;97.50
18321;DHT22;54904;54.350;18.664;2023-07-22T10:10:13;22.70;96.70
18321;DHT22;54904;54.350;18.664;2023-07-22T10:12:41;22.80;96.30
18321;DHT22;54904;54.350;18.664;2023-07-22T10:15:10;22.80;96.10
18321;DHT22;54904;54.350;18.664;2023-07-22T10:17:39;22.90;95.90
18321;DHT22;54904;54.350;18.664;2023-07-22T10:20:08;22.90;95.90
18321;DHT22;54904;54.350;18.664;2023-07-22T10:22:41;23.00;95.80
18321;DHT22;54904;54.350;18.664;2023-07-22T10:25:11;23.10;95.50
18321;DHT22;54904;54.350;18.664;2023-07-22T10:27:38;23.00;95.00
18321;DHT22;54904;54.350;18.664;2023-07-22T10:30:07;23.00;94.80
18321;DHT22;54904;54.350;18.664;2023-07-22T10:32:36;22.90;94.70
18321;DHT22;54904;54.350;18.664;2023-07-22T10:35:08;22.80;94.60
18321;DHT22;54904;54.350;18.664;2023-07-22T10:37:37;22.70;94.20
18321;DHT22;54904;54.350;18.664;2023-07-22T10:40:18;22.60;94.00
18321;DHT22;54904;54.350;18.664;2023-07-22T10:42:57;22.50;94.00
18321;DHT22;54904;54.350;18.664;2023-07-22T10:45:26;22.40;94.10
18321;DHT22;54904;54.350;18.664;2023-07-22T10:48:05;22.40;94.30
18321;DHT22;54904;54.350;18.664;2023-07-22T10:50:44;22.30;94.30
18321;DHT22;54904;54.350;18.664;2023-07-22T10:53:13;22.20;94.50
18321;DHT22;54904;54.350;18.664;2023-07-22T10:56:12;22.20;94.70
18321;DHT22;54904;54.350;18.664;2023-07-22T10:58:58;22.20;94.50
18321;DHT22;54904;54.350;18.664;2023-07-22T11:01:36;22.20;94.40
18321;DHT22;54904;54.350;18.664;2023-07-22T11:04:12;22.30;94.20
18321;DHT22;54904;54.350;18.664;2023-07-22T11:06:52;22.20;93.80
18321;DHT22;54904;54.350;18.664;2023-07-22T11:09:38;22.20;93.70
18321;DHT22;54904;54.350;18.664;2023-07-22T11:12:07;22.20;93.50
18321;DHT22;54904;54.350;18.664;2023-07-22T11:14:37;22.20;93.40
18321;DHT22;54904;54.350;18.664;2023-07-22T11:17:06;22.40;93.60
18321;DHT22;54904;54.350;18.664;2023-07-22T11:19:34;22.40;93.60
18321;DHT22;54904;54.350;18.664;2023-07-22T11:22:03;22.50;93.40
18321;DHT22;54904;54.350;18.664;2023-07-22T11:24:32;22.40;93.10
18321;DHT22;54904;54.350;18.664;2023-07-22T11:27:01;22.40;93.20
18321;DHT22;54904;54.350;18.664;2023-07-22T11:29:29;22.40;93.20
18321;DHT22;54904;54.350;18.664;2023-07-22T11:31:57;22.40;93.10
18321;DHT22;54904;54.350;18.664;2023-07-22T11:34:27;22.40;93.00
18321;DHT22;54904;54.350;18.664;2023-07-22T11:36:55;22.30;92.10
18321;DHT22;54904;54.350;18.664;2023-07-22T11:39:26;22.20;92.10
18321;DHT22;54904;54.350;18.664;2023-07-22T11:41:53;22.10;91.70
18321;DHT22;54904;54.350;18.664;2023-07-22T11:44:22;22.00;91.90
18321;DHT22;54904;54.350;18.664;2023-07-22T11:46:53;22.00;92.00
18321;DHT22;54904;54.350;18.664;2023-07-22T11:49:25;21.90;92.10
18321;DHT22;54904;54.350;18.664;2023-07-22T11:51:55;21.90;92.10
18321;DHT22;54904;54.350;18.664;2023-07-22T11:54:31;22.00;92.10
18321;DHT22;54904;54.350;18.664;2023-07-22T11:57:10;22.20;92.20
18321;DHT22;54904;54.350;18.664;2023-07-22T11:59:38;22.40;92.10
18321;DHT22;54904;54.350;18.664;2023-07-22T12:02:05;22.60;92.00
18321;DHT22;54904;54.350;18.664;2023-07-22T12:04:33;22.60;91.80
18321;DHT22;54904;54.350;18.664;2023-07-22T12:07:01;22.70;91.70
18321;DHT22;54904;54.350;18.664;2023-07-22T12:09:31;22.70;91.50
18321;DHT22;54904;54.350;18.664;2023-07-22T12:12:01;22.70;91.60
18321;DHT22;54904;54.350;18.664;2023-07-22T12:14:35;22.80;91.50
18321;DHT22;54904;54.350;18.664;2023-07-22T12:17:02;22.90;91.50
18321;DHT22;54904;54.350;18.664;2023-07-22T12:19:29;23.00;91.30
18321;DHT22;54904;54.350;18.664;2023-07-22T12:21:57;23.10;90.60
18321;DHT22;54904;54.350;18.664;2023-07-22T12:24:24;23.10;90.50
18321;DHT22;54904;54.350;18.664;2023-07-22T12:26:52;23.10;89.20
18321;DHT22;54904;54.350;18.664;2023-07-22T12:29:19;23.10;88.70
18321;DHT22;54904;54.350;18.664;2023-07-22T12:31:48;23.10;88.10
18321;DHT22;54904;54.350;18.664;2023-07-22T12:34:15;23.20;87.00
18321;DHT22;54904;54.350;18.664;2023-07-22T12:36:42;23.10;85.40
18321;DHT22;54904;54.350;18.664;2023-07-22T12:39:09;22.90;84.90
18321;DHT22;54904;54.350;18.664;2023-07-22T12:41:37;22.70;85.80
18321;DHT22;54904;54.350;18.664;2023-07-22T12:44:08;22.50;86.90
18321;DHT22;54904;54.350;18.664;2023-07-22T12:46:35;22.30;87.90
18321;DHT22;54904;54.350;18.664;2023-07-22T12:49:02;22.20;89.40
18321;DHT22;54904;54.350;18.664;2023-07-22T12:51:31;22.10;89.20
18321;DHT22;54904;54.350;18.664;2023-07-22T12:53:58;22.20;89.60
18321;DHT22;54904;54.350;18.664;2023-07-22T12:56:25;22.40;89.80
18321;DHT22;54904;54.350;18.664;2023-07-22T12:58:52;22.50;89.80
18321;DHT22;54904;54.350;18.664;2023-07-22T13:01:21;22.50;89.70
18321;DHT22;54904;54.350;18.664;2023-07-22T13:03:48;22.50;89.60
18321;DHT22;54904;54.350;18.664;2023-07-22T13:06:15;22.50;89.70
18321;DHT22;54904;54.350;18.664;2023-07-22T13:08:42;22.50;89.20
18321;DHT22;54904;54.350;18.664;2023-07-22T13:11:09;22.60;89.20
18321;DHT22;54904;54.350;18.664;2023-07-22T13:13:36;22.60;88.80
18321;DHT22;54904;54.350;18.664;2023-07-22T13:16:03;22.60;88.70
18321;DHT22;54904;54.350;18.664;2023-07-22T13:18:32;22.60;88.70
18321;DHT22;54904;54.350;18.664;2023-07-22T13:20:59;22.80;88.20
18321;DHT22;54904;54.350;18.664;2023-07-22T13:23:26;22.80;87.50
18321;DHT22;54904;54.350;18.664;2023-07-22T13:25:53;22.90;87.30
18321;DHT22;54904;54.350;18.664;2023-07-22T13:28:20;22.90;86.30
18321;DHT22;54904;54.350;18.664;2023-07-22T13:30:47;22.90;86.40
18321;DHT22;54904;54.350;18.664;2023-07-22T13:33:14;23.10;86.70
18321;DHT22;54904;54.350;18.664;2023-07-22T13:35:43;23.10;86.50
18321;DHT22;54904;54.350;18.664;2023-07-22T13:38:10;23.20;86.00
18321;DHT22;54904;54.350;18.664;2023-07-22T13:40:38;23.30;86.10
18321;DHT22;54904;54.350;18.664;2023-07-22T13:43:05;23.30;85.90
18321;DHT22;54904;54.350;18.664;2023-07-22T13:45:32;23.30;85.70
18321;DHT22;54904;54.350;18.664;2023-07-22T13:47:59;23.40;85.20
18321;DHT22;54904;54.350;18.664;2023-07-22T13:50:26;23.50;85.30
18321;DHT22;54904;54.350;18.664;2023-07-22T13:52:55;23.40;85.00
18321;DHT22;54904;54.350;18.664;2023-07-22T13:55:22;23.50;84.80
18321;DHT22;54904;54.350;18.664;2023-07-22T13:57:49;23.50;84.60
18321;DHT22;54904;54.350;18.664;2023-07-22T14:00:16;23.50;84.50
18321;DHT22;54904;54.350;18.664;2023-07-22T14:02:44;23.50;83.80
18321;DHT22;54904;54.350;18.664;2023-07-22T14:05:11;23.40;81.20
18321;DHT22;54904;54.350;18.664;2023-07-22T14:07:38;23.30;81.60
18321;DHT22;54904;54.350;18.664;2023-07-22T14:10:07;23.20;81.90
18321;DHT22;54904;54.350;18.664;2023-07-22T14:12:35;23.20;82.30
18321;DHT22;54904;54.350;18.664;2023-07-22T14:15:02;23.10;82.40
18321;DHT22;54904;54.350;18.664;2023-07-22T14:17:32;23.10;82.60
18321;DHT22;54904;54.350;18.664;2023-07-22T14:19:59;23.00;82.40
18321;DHT22;54904;54.350;18.664;2023-07-22T14:22:26;23.10;82.80
18321;DHT22;54904;54.350;18.664;2023-07-22T14:24:53;23.10;82.80
18321;DHT22;54904;54.350;18.664;2023-07-22T14:27:22;23.00;82.30
18321;DHT22;54904;54.350;18.664;2023-07-22T14:29:49;23.00;82.40
18321;DHT22;54904;54.350;18.664;2023-07-22T14:32:22;23.00;82.30
18321;DHT22;54904;54.350;18.664;2023-07-22T14:34:49;23.10;82.40
18321;DHT22;54904;54.350;18.664;2023-07-22T14:37:16;23.20;82.10
18321;DHT22;54904;54.350;18.664;2023-07-22T14:39:43;23.30;81.90
18321;DHT22;54904;54.350;18.664;2023-07-22T14:42:10;23.30;81.40
18321;DHT22;54904;54.350;18.664;2023-07-22T14:44:38;23.20;80.80
18321;DHT22;54904;54.350;18.664;2023-07-22T14:47:05;23.10;80.60
18321;DHT22;54904;54.350;18.664;2023-07-22T14:49:32;23.00;80.20
18321;DHT22;54904;54.350;18.664;2023-07-22T14:51:59;22.90;79.70
18321;DHT22;54904;54.350;18.664;2023-07-22T14:54:26;22.90;79.60
18321;DHT22;54904;54.350;18.664;2023-07-22T14:56:53;22.90;79.80
18321;DHT22;54904;54.350;18.664;2023-07-22T14:59:21;23.00;80.00
18321;DHT22;54904;54.350;18.664;2023-07-22T15:01:49;23.10;80.20
18321;DHT22;54904;54.350;18.664;2023-07-22T15:04:16;23.10;80.20
18321;DHT22;54904;54.350;18.664;2023-07-22T15:06:43;23.20;80.10
18321;DHT22;54904;54.350;18.664;2023-07-22T15:09:10;23.20;80.20
18321;DHT22;54904;54.350;18.664;2023-07-22T15:11:37;23.20;80.50
18321;DHT22;54904;54.350;18.664;2023-07-22T15:14:04;23.20;80.10
18321;DHT22;54904;54.350;18.664;2023-07-22T15:16:32;23.30;80.30
18321;DHT22;54904;54.350;18.664;2023-07-22T15:19:02;23.30;80.20
18321;DHT22;54904;54.350;18.664;2023-07-22T15:21:29;23.30;80.10